createdAt,value
2023-03-25T00:00:19.081Z,17.13
2023-03-25T00:02:49.462Z,11.40
2023-03-25T00:05:19.757Z,11.27
2023-03-25T00:07:50.636Z,9.77
2023-03-25T00:10:18.666Z,15.00
2023-03-25T00:12:46.018Z,11.13
2023-03-25T00:15:13.526Z,10.20
2023-03-25T00:17:40.796Z,15.15
2023-03-25T00:20:10.217Z,13.57
2023-03-25T00:22:40.984Z,12.55
2023-03-25T00:25:20.384Z,11.45
2023-03-25T00:27:48.742Z,14.98
2023-03-25T00:30:18.050Z,11.48
2023-03-25T00:32:49.983Z,25.15
2023-03-25T00:35:21.153Z,8.93
2023-03-25T00:40:25.980Z,15.38
2023-03-25T00:42:53.178Z,18.05
2023-03-25T00:45:20.456Z,12.50
2023-03-25T00:47:47.699Z,13.43
2023-03-25T00:50:15.358Z,13.02
2023-03-25T00:52:42.693Z,9.13
2023-03-25T00:55:10.566Z,8.60
2023-03-25T00:57:37.774Z,16.45
2023-03-25T01:00:08.687Z,14.75
2023-03-25T01:02:36.365Z,17.17
2023-03-25T01:05:04.452Z,10.20
2023-03-25T01:07:32.693Z,18.23
2023-03-25T01:10:07.195Z,18.95
2023-03-25T01:12:34.714Z,15.57
2023-03-25T01:15:03.638Z,10.27
2023-03-25T01:17:31.511Z,20.27
2023-03-25T01:19:59.021Z,16.10
2023-03-25T01:22:26.290Z,15.88
2023-03-25T01:24:53.533Z,14.82
2023-03-25T01:27:20.844Z,15.75
2023-03-25T01:29:48.076Z,14.30
2023-03-25T01:32:15.434Z,14.30
2023-03-25T01:34:42.961Z,16.23
2023-03-25T01:37:10.297Z,12.68
2023-03-25T01:39:37.804Z,16.02
2023-03-25T01:42:05.973Z,14.18
2023-03-25T01:44:34.296Z,20.15
2023-03-25T01:47:05.344Z,28.40
2023-03-25T01:49:38.889Z,22.52
2023-03-25T01:52:12.816Z,14.25
2023-03-25T01:54:41.866Z,15.55
2023-03-25T01:57:13.203Z,12.38
2023-03-25T01:59:41.603Z,17.95
2023-03-25T02:02:10.535Z,13.63
2023-03-25T02:04:59.162Z,15.18
2023-03-25T02:07:33.109Z,25.73
2023-03-25T02:10:05.783Z,21.48
2023-03-25T02:12:33.444Z,14.43
2023-03-25T02:15:03.841Z,19.70
2023-03-25T02:18:16.223Z,20.75
2023-03-25T02:20:55.654Z,16.05
2023-03-25T02:23:58.031Z,18.70
2023-03-25T02:27:05.300Z,16.20
2023-03-25T02:29:59.183Z,22.35
2023-03-25T02:32:52.924Z,26.50
2023-03-25T02:35:50.081Z,24.95
2023-03-25T02:38:31.617Z,18.40
2023-03-25T02:41:18.212Z,19.92
2023-03-25T02:44:02.163Z,21.77
2023-03-25T02:46:33.646Z,18.08
2023-03-25T02:49:10.814Z,25.40
2023-03-25T02:51:46.234Z,25.73
2023-03-25T02:54:16.762Z,27.90
2023-03-25T02:56:47.665Z,21.00
2023-03-25T02:59:17.731Z,19.67
2023-03-25T03:01:50.481Z,25.15
2023-03-25T03:04:19.060Z,14.63
2023-03-25T03:06:46.322Z,23.25
2023-03-25T03:09:23.045Z,25.02
2023-03-25T03:12:31.811Z,20.60
2023-03-25T03:15:16.318Z,30.95
2023-03-25T03:18:09.900Z,22.38
2023-03-25T03:20:43.254Z,27.40
2023-03-25T03:23:28.385Z,24.95
2023-03-25T03:26:30.001Z,24.92
2023-03-25T03:29:00.955Z,29.35
2023-03-25T03:32:05.595Z,33.13
2023-03-25T03:34:45.237Z,24.33
2023-03-25T03:37:22.192Z,23.45
2023-03-25T03:39:52.030Z,29.80
2023-03-25T03:42:29.791Z,26.50
2023-03-25T03:45:03.377Z,25.05
2023-03-25T03:47:36.676Z,22.80
2023-03-25T03:50:14.341Z,21.33
2023-03-25T03:53:04.494Z,27.95
2023-03-25T03:55:43.712Z,16.45
2023-03-25T03:58:30.270Z,17.48
2023-03-25T04:01:11.711Z,19.83
2023-03-25T04:04:07.662Z,23.98
2023-03-25T04:06:42.155Z,23.38
2023-03-25T04:09:34.697Z,16.30
2023-03-25T04:12:27.317Z,23.05
2023-03-25T04:15:03.817Z,16.33
2023-03-25T04:17:33.134Z,20.85
2023-03-25T04:20:02.006Z,21.67
2023-03-25T04:22:29.611Z,18.60
2023-03-25T04:25:02.507Z,22.83
2023-03-25T04:27:32.786Z,22.63
2023-03-25T04:30:04.088Z,18.73
2023-03-25T04:32:31.404Z,20.15
2023-03-25T04:34:58.751Z,21.65
2023-03-25T04:37:27.812Z,25.63
2023-03-25T04:39:56.247Z,23.60
2023-03-25T04:42:25.834Z,15.80
2023-03-25T04:44:53.089Z,25.52
2023-03-25T04:47:25.345Z,24.15
2023-03-25T04:49:52.662Z,28.88
2023-03-25T04:52:19.862Z,23.95
2023-03-25T04:54:47.182Z,23.40
2023-03-25T04:57:15.390Z,20.15
2023-03-25T04:59:42.804Z,27.50
2023-03-25T05:02:13.612Z,23.35
2023-03-25T05:04:47.903Z,29.23
2023-03-25T05:07:16.707Z,17.85
2023-03-25T05:09:44.135Z,27.05
2023-03-25T05:12:11.650Z,19.83
2023-03-25T05:14:39.010Z,21.88
2023-03-25T05:17:06.153Z,17.48
2023-03-25T05:19:35.279Z,11.07
2023-03-25T05:22:04.737Z,20.83
2023-03-25T05:24:32.092Z,20.30
2023-03-25T05:27:05.449Z,23.83
2023-03-25T05:29:34.123Z,22.98
2023-03-25T05:32:05.535Z,15.82
2023-03-25T05:34:33.488Z,21.98
2023-03-25T05:37:02.779Z,20.25
2023-03-25T05:39:29.970Z,17.60
2023-03-25T05:42:03.379Z,28.52
2023-03-25T05:44:30.611Z,23.50
2023-03-25T05:47:02.787Z,22.88
2023-03-25T05:49:30.032Z,21.48
2023-03-25T05:51:57.255Z,25.38
2023-03-25T05:54:28.616Z,24.50
2023-03-25T05:56:56.116Z,23.73
2023-03-25T05:59:23.475Z,21.30
2023-03-25T06:01:50.652Z,32.17
2023-03-25T06:04:17.891Z,16.33
2023-03-25T06:06:45.116Z,15.45
2023-03-25T06:09:12.359Z,32.17
2023-03-25T06:11:39.582Z,21.45
2023-03-25T06:14:07.641Z,25.15
2023-03-25T06:16:35.706Z,28.60
2023-03-25T06:19:03.787Z,34.13
2023-03-25T06:21:34.695Z,22.70
2023-03-25T06:24:06.032Z,29.10
2023-03-25T06:26:33.330Z,25.92
2023-03-25T06:29:05.580Z,22.50
2023-03-25T06:31:33.929Z,27.90
2023-03-25T06:34:03.591Z,21.40
2023-03-25T06:36:31.526Z,19.88
2023-03-25T06:38:58.838Z,25.48
2023-03-25T06:41:28.734Z,27.52
2023-03-25T06:44:25.047Z,26.50
2023-03-25T06:47:30.822Z,24.80
2023-03-25T06:49:58.220Z,24.10
2023-03-25T06:52:25.588Z,21.88
2023-03-25T06:54:52.820Z,20.05
2023-03-25T06:57:19.996Z,25.90
2023-03-25T06:59:48.357Z,15.23
2023-03-25T07:02:15.801Z,16.80
2023-03-25T07:04:42.990Z,12.45
2023-03-25T07:07:10.517Z,12.65
2023-03-25T07:09:37.789Z,16.50
2023-03-25T07:12:06.990Z,14.43
2023-03-25T07:14:36.174Z,14.43
2023-03-25T07:17:03.473Z,17.23
2023-03-25T07:19:31.038Z,19.33
2023-03-25T07:21:58.345Z,22.38
2023-03-25T07:24:25.726Z,17.83
2023-03-25T07:26:52.912Z,23.00
2023-03-25T07:29:23.614Z,21.88
2023-03-25T07:31:51.019Z,25.02
2023-03-25T07:34:18.266Z,22.98
2023-03-25T07:36:45.646Z,22.48
2023-03-25T07:39:15.569Z,21.05
2023-03-25T07:41:43.190Z,23.10
2023-03-25T07:44:21.444Z,17.90
2023-03-25T07:46:50.198Z,16.92
2023-03-25T07:49:17.722Z,12.20
2023-03-25T07:51:45.766Z,12.23
2023-03-25T07:54:13.004Z,14.93
2023-03-25T07:56:40.408Z,7.10
2023-03-25T07:59:07.781Z,8.43
2023-03-25T08:01:35.582Z,8.20
2023-03-25T08:04:04.537Z,13.23
2023-03-25T08:06:32.224Z,13.55
2023-03-25T08:08:59.467Z,8.10
2023-03-25T08:11:26.687Z,16.13
2023-03-25T08:13:53.854Z,17.63
2023-03-25T08:16:21.141Z,14.98
2023-03-25T08:18:48.313Z,13.77
2023-03-25T08:21:17.326Z,14.23
2023-03-25T08:23:44.818Z,10.93
2023-03-25T08:26:11.964Z,12.98
2023-03-25T08:28:39.252Z,13.98
2023-03-25T08:31:08.467Z,15.13
2023-03-25T08:33:39.645Z,12.75
2023-03-25T08:36:10.663Z,10.98
2023-03-25T08:38:38.010Z,16.98
2023-03-25T08:41:05.264Z,14.50
2023-03-25T08:43:32.406Z,19.67
2023-03-25T08:45:59.729Z,15.85
2023-03-25T08:48:27.056Z,17.02
2023-03-25T08:50:54.287Z,17.63
2023-03-25T08:53:21.506Z,11.20
2023-03-25T08:55:53.452Z,20.10
2023-03-25T08:58:22.767Z,17.63
2023-03-25T09:00:54.372Z,13.40
2023-03-25T09:03:23.318Z,12.57
2023-03-25T09:05:51.121Z,14.60
2023-03-25T09:08:18.632Z,17.70
2023-03-25T09:10:45.917Z,10.77
2023-03-25T09:13:13.122Z,9.98
2023-03-25T09:15:40.498Z,13.05
2023-03-25T09:18:08.332Z,15.73
2023-03-25T09:20:35.794Z,15.10
2023-03-25T09:23:03.476Z,13.02
2023-03-25T09:25:30.773Z,16.00
2023-03-25T09:27:58.016Z,18.70
2023-03-25T09:30:25.687Z,12.25
2023-03-25T09:32:53.279Z,17.17
2023-03-25T09:35:20.692Z,13.40
2023-03-25T09:37:52.021Z,18.50
2023-03-25T09:40:21.999Z,20.40
2023-03-25T09:43:08.246Z,19.67
2023-03-25T09:45:42.344Z,9.60
2023-03-25T09:48:38.281Z,9.65
2023-03-25T09:51:10.897Z,15.50
2023-03-25T09:54:24.711Z,13.80
2023-03-25T09:56:53.246Z,10.50
2023-03-25T09:59:23.598Z,8.93
2023-03-25T10:02:26.822Z,14.68
2023-03-25T10:05:16.081Z,13.80
2023-03-25T10:07:56.408Z,11.77
2023-03-25T10:10:32.910Z,14.18
2023-03-25T10:13:03.160Z,9.20
2023-03-25T10:15:43.855Z,18.63
2023-03-25T10:18:29.634Z,13.98
2023-03-25T10:21:13.522Z,17.27
2023-03-25T10:24:15.786Z,14.10
2023-03-25T10:26:49.112Z,13.57
2023-03-25T10:29:21.970Z,14.07
2023-03-25T10:31:54.722Z,12.18
2023-03-25T10:34:46.767Z,12.73
2023-03-25T10:37:21.626Z,8.75
2023-03-25T10:39:49.967Z,13.10
2023-03-25T10:42:32.034Z,13.93
2023-03-25T10:44:59.244Z,9.02
2023-03-25T10:47:38.744Z,16.63
2023-03-25T10:50:06.978Z,16.55
2023-03-25T10:52:34.560Z,19.27
2023-03-25T10:55:02.261Z,12.57
2023-03-25T10:57:31.726Z,13.45
2023-03-25T11:00:02.186Z,19.98
2023-03-25T11:02:31.371Z,11.85
2023-03-25T11:05:07.813Z,9.57
2023-03-25T11:07:41.702Z,12.48
2023-03-25T11:10:17.918Z,20.70
2023-03-25T11:12:46.737Z,9.82
2023-03-25T11:15:35.536Z,17.17
2023-03-25T11:18:12.466Z,16.80
2023-03-25T11:20:46.122Z,15.15
2023-03-25T11:23:28.073Z,15.25
2023-03-25T11:26:04.009Z,11.93
2023-03-25T11:28:45.004Z,17.23
2023-03-25T11:31:26.351Z,12.73
2023-03-25T11:34:09.113Z,16.58
2023-03-25T11:36:40.405Z,13.52
2023-03-25T11:39:23.671Z,13.13
2023-03-25T11:41:52.107Z,14.32
2023-03-25T11:44:29.825Z,10.57
2023-03-25T11:47:04.460Z,12.85
2023-03-25T11:49:37.586Z,15.00
2023-03-25T11:52:09.509Z,10.05
2023-03-25T11:54:37.647Z,15.98
2023-03-25T11:57:11.184Z,15.05
2023-03-25T11:59:49.798Z,11.07
2023-03-25T12:02:38.378Z,18.75
2023-03-25T12:05:08.663Z,14.18
2023-03-25T12:08:15.112Z,9.18
2023-03-25T12:10:51.591Z,10.93
2023-03-25T12:13:37.538Z,12.90
2023-03-25T12:16:40.709Z,7.15
2023-03-25T12:19:23.067Z,5.35
2023-03-25T12:21:56.408Z,8.20
2023-03-25T12:25:01.484Z,8.13
2023-03-25T12:28:21.791Z,9.73
2023-03-25T12:31:09.047Z,8.00
2023-03-25T12:34:03.881Z,7.22
2023-03-25T12:36:38.861Z,13.60
2023-03-25T12:39:39.628Z,12.20
2023-03-25T12:42:10.022Z,8.55
2023-03-25T12:44:40.507Z,11.35
2023-03-25T12:47:23.572Z,10.30
2023-03-25T12:50:11.720Z,8.63
2023-03-25T12:53:01.622Z,11.73
2023-03-25T12:55:28.945Z,14.80
2023-03-25T12:57:59.211Z,9.38
2023-03-25T13:00:54.827Z,7.70
2023-03-25T13:04:07.312Z,8.85
2023-03-25T13:06:46.512Z,11.98
2023-03-25T13:09:38.026Z,9.73
2023-03-25T13:12:33.654Z,10.13
2023-03-25T13:15:21.902Z,6.10
2023-03-25T13:18:09.456Z,7.25
2023-03-25T13:20:46.664Z,8.05
2023-03-25T13:23:17.837Z,11.48
2023-03-25T13:25:54.318Z,14.30
2023-03-25T13:28:26.269Z,6.85
2023-03-25T13:30:55.434Z,9.18
2023-03-25T13:33:31.411Z,11.75
2023-03-25T13:36:32.225Z,8.57
2023-03-25T13:39:06.621Z,7.93
2023-03-25T13:41:44.417Z,7.90
2023-03-25T13:44:19.983Z,9.98
2023-03-25T13:46:52.711Z,8.38
2023-03-25T13:49:43.698Z,6.32
2023-03-25T13:52:14.321Z,4.78
2023-03-25T13:54:56.511Z,8.88
2023-03-25T13:57:26.813Z,7.38
2023-03-25T14:00:28.949Z,7.80
2023-03-25T14:02:56.699Z,15.15
2023-03-25T14:05:36.170Z,8.10
2023-03-25T14:08:13.550Z,12.80
2023-03-25T14:10:54.042Z,9.68
2023-03-25T14:13:30.328Z,10.57
2023-03-25T14:16:10.312Z,5.82
2023-03-25T14:18:52.614Z,6.13
2023-03-25T14:21:41.453Z,3.20
2023-03-25T14:24:17.677Z,3.10
2023-03-25T14:27:00.432Z,4.80
2023-03-25T14:30:00.811Z,3.05
2023-03-25T14:32:40.331Z,5.80
2023-03-25T14:35:38.650Z,8.73
2023-03-25T14:38:06.071Z,5.80
2023-03-25T14:40:55.483Z,4.05
2023-03-25T14:43:40.426Z,10.20
2023-03-25T14:46:10.697Z,9.43
2023-03-25T14:48:49.101Z,10.05
2023-03-25T14:51:30.787Z,10.02
2023-03-25T14:54:05.766Z,6.53
2023-03-25T14:56:52.323Z,11.77
2023-03-25T14:59:25.306Z,12.70
2023-03-25T15:01:53.478Z,9.20
2023-03-25T15:04:30.012Z,12.63
2023-03-25T15:06:59.572Z,10.65
2023-03-25T15:09:29.903Z,11.68
2023-03-25T15:12:03.932Z,15.68
2023-03-25T15:14:38.953Z,13.73
2023-03-25T15:17:11.214Z,10.77
2023-03-25T15:20:12.138Z,11.27
2023-03-25T15:25:19.986Z,13.48
2023-03-25T15:28:05.788Z,14.52
2023-03-25T15:30:42.020Z,9.20
2023-03-25T15:33:24.654Z,11.07
2023-03-25T15:35:56.331Z,13.40
2023-03-25T15:38:48.477Z,14.95
2023-03-25T15:41:15.937Z,11.75
2023-03-25T15:43:54.025Z,8.95
2023-03-25T15:46:46.514Z,10.80
2023-03-25T15:49:32.013Z,7.00
2023-03-25T15:52:12.172Z,12.75
2023-03-25T15:54:52.206Z,7.90
2023-03-25T15:57:19.535Z,9.52
2023-03-25T16:00:13.448Z,13.00
2023-03-25T16:02:59.646Z,12.20
2023-03-25T16:05:27.873Z,11.48
2023-03-25T16:07:59.130Z,9.95
2023-03-25T16:10:36.475Z,11.63
2023-03-25T16:13:24.160Z,9.50
2023-03-25T16:15:55.236Z,5.82
2023-03-25T16:18:24.238Z,7.78
2023-03-25T16:21:00.964Z,17.52
2023-03-25T16:23:30.781Z,10.13
2023-03-25T16:25:58.062Z,9.65
2023-03-25T16:28:33.815Z,12.48
2023-03-25T16:31:03.042Z,8.77
2023-03-25T16:33:37.159Z,10.50
2023-03-25T16:36:31.244Z,7.25
2023-03-25T16:38:58.637Z,11.82
2023-03-25T16:41:26.094Z,8.95
2023-03-25T16:43:54.926Z,8.88
2023-03-25T16:46:23.539Z,5.82
2023-03-25T16:48:54.180Z,6.55
2023-03-25T16:51:25.570Z,5.70
2023-03-25T16:53:56.010Z,9.25
2023-03-25T16:56:27.720Z,5.95
2023-03-25T16:59:05.617Z,11.02
2023-03-25T17:01:42.732Z,14.68
2023-03-25T17:04:22.751Z,10.60
2023-03-25T17:06:53.372Z,9.87
2023-03-25T17:09:35.252Z,10.27
2023-03-25T17:12:08.699Z,9.98
2023-03-25T17:14:42.911Z,11.20
2023-03-25T17:17:17.808Z,12.27
2023-03-25T17:19:48.274Z,9.82
2023-03-25T17:22:30.022Z,12.68
2023-03-25T17:24:59.450Z,13.05
2023-03-25T17:27:38.733Z,21.75
2023-03-25T17:30:41.792Z,13.60
2023-03-25T17:33:31.555Z,12.88
2023-03-25T17:35:59.219Z,24.88
2023-03-25T17:38:28.556Z,24.95
2023-03-25T17:41:07.539Z,12.48
2023-03-25T17:43:42.639Z,16.20
2023-03-25T17:46:10.862Z,14.75
2023-03-25T17:48:38.208Z,14.82
2023-03-25T17:51:05.734Z,18.77
2023-03-25T17:53:33.134Z,13.63
2023-03-25T17:56:03.515Z,18.02
2023-03-25T17:58:31.117Z,13.15
2023-03-25T18:00:59.352Z,20.35
2023-03-25T18:03:28.272Z,20.63
2023-03-25T18:05:55.794Z,22.13
2023-03-25T18:08:25.174Z,26.25
2023-03-25T18:10:54.261Z,9.70
2023-03-25T18:13:24.793Z,22.83
2023-03-25T18:15:53.644Z,21.00
2023-03-25T18:18:24.873Z,19.75
2023-03-25T18:20:56.043Z,23.75
2023-03-25T18:23:26.929Z,18.75
2023-03-25T18:25:54.271Z,24.77
2023-03-25T18:28:21.866Z,23.35
2023-03-25T18:30:59.561Z,17.80
2023-03-25T18:33:28.755Z,21.92
2023-03-25T18:35:59.473Z,21.45
2023-03-25T18:40:56.738Z,17.88
2023-03-25T18:43:24.097Z,20.42
2023-03-25T18:45:51.827Z,28.52
2023-03-25T18:48:21.490Z,19.50
2023-03-25T18:50:54.804Z,14.43
2023-03-25T18:53:27.469Z,19.20
2023-03-25T18:56:00.843Z,19.30
2023-03-25T18:58:31.282Z,18.10
2023-03-25T19:01:03.375Z,13.32
2023-03-25T19:03:31.830Z,16.13
2023-03-25T19:06:00.613Z,14.40
2023-03-25T19:08:28.756Z,15.75
2023-03-25T19:11:04.566Z,21.58
2023-03-25T19:13:40.026Z,12.05
2023-03-25T19:16:10.962Z,13.40
2023-03-25T19:18:38.234Z,11.82
2023-03-25T19:21:07.300Z,16.65
2023-03-25T19:23:35.470Z,7.30
2023-03-25T19:26:03.893Z,12.15
2023-03-25T19:28:31.146Z,12.82
2023-03-25T19:31:03.272Z,15.32
2023-03-25T19:33:31.478Z,12.50
2023-03-25T19:36:02.343Z,18.75
2023-03-25T19:38:33.212Z,9.68
2023-03-25T19:41:09.292Z,14.85
2023-03-25T19:43:36.767Z,18.70
2023-03-25T19:46:05.644Z,13.32
2023-03-25T19:48:34.061Z,15.35
2023-03-25T19:51:04.103Z,12.35
2023-03-25T19:53:31.621Z,18.88
2023-03-25T19:56:04.728Z,12.18
2023-03-25T19:58:32.681Z,19.40
2023-03-25T20:01:00.015Z,20.23
2023-03-25T20:03:31.384Z,18.00
2023-03-25T20:06:03.638Z,18.25
2023-03-25T20:08:31.962Z,15.90
2023-03-25T20:10:59.494Z,17.17
2023-03-25T20:13:27.025Z,19.83
2023-03-25T20:15:54.735Z,21.75
2023-03-25T20:18:22.243Z,14.95
2023-03-25T20:20:49.486Z,15.20
2023-03-25T20:23:16.939Z,18.25
2023-03-25T20:25:44.488Z,13.35
2023-03-25T20:28:11.829Z,25.27
2023-03-25T20:30:39.855Z,17.48
2023-03-25T20:33:07.165Z,18.58
2023-03-25T20:35:34.861Z,16.33
2023-03-25T20:38:03.348Z,16.08
2023-03-25T20:40:41.579Z,17.08
2023-03-25T20:43:14.040Z,18.70
2023-03-25T20:45:42.959Z,18.38
2023-03-25T20:48:10.825Z,13.27
2023-03-25T20:50:38.666Z,16.63
2023-03-25T20:53:06.334Z,23.67
2023-03-25T20:55:34.016Z,19.45
2023-03-25T20:58:04.163Z,13.48
2023-03-25T21:00:31.976Z,13.25
2023-03-25T21:02:59.399Z,16.92
2023-03-25T21:05:28.048Z,14.07
2023-03-25T21:07:55.533Z,10.93
2023-03-25T21:10:22.781Z,13.43
2023-03-25T21:12:50.173Z,8.57
2023-03-25T21:15:18.092Z,15.65
2023-03-25T21:17:45.633Z,21.15
2023-03-25T21:20:13.034Z,17.88
2023-03-25T21:22:45.321Z,14.88
2023-03-25T21:25:14.791Z,19.40
2023-03-25T21:27:45.358Z,16.23
2023-03-25T21:30:14.132Z,19.38
2023-03-25T21:32:42.233Z,23.10
2023-03-25T21:35:09.918Z,15.20
2023-03-25T21:37:38.883Z,19.33
2023-03-25T21:40:10.289Z,14.18
2023-03-25T21:42:38.828Z,22.90
2023-03-25T21:45:07.898Z,12.23
2023-03-25T21:47:36.450Z,22.75
2023-03-25T21:50:07.661Z,22.25
2023-03-25T21:52:35.972Z,19.58
2023-03-25T21:55:03.925Z,23.40
2023-03-25T21:57:31.195Z,15.88
2023-03-25T21:59:58.585Z,19.50
2023-03-25T22:02:29.155Z,18.40
2023-03-25T22:04:56.360Z,21.13
2023-03-25T22:07:23.738Z,22.60
2023-03-25T22:09:52.495Z,20.10
2023-03-25T22:12:19.740Z,17.88
2023-03-25T22:14:47.622Z,26.35
2023-03-25T22:17:15.160Z,18.80
2023-03-25T22:19:42.516Z,23.60
2023-03-25T22:22:12.110Z,21.45
2023-03-25T22:24:39.491Z,24.10
2023-03-25T22:27:06.881Z,18.88
2023-03-25T22:29:34.348Z,16.25
2023-03-25T22:32:07.861Z,20.60
2023-03-25T22:34:35.485Z,19.75
2023-03-25T22:37:04.439Z,26.95
2023-03-25T22:39:31.728Z,19.35
2023-03-25T22:41:59.193Z,22.52
2023-03-25T22:44:26.623Z,26.08
2023-03-25T22:46:53.851Z,21.35
2023-03-25T22:49:21.862Z,25.20
2023-03-25T22:51:51.142Z,23.38
2023-03-25T22:54:18.611Z,14.90
2023-03-25T22:56:45.992Z,17.00
2023-03-25T22:59:14.601Z,16.40
2023-03-25T23:01:43.340Z,13.65
2023-03-25T23:04:10.892Z,15.68
2023-03-25T23:06:38.670Z,13.63
2023-03-25T23:09:08.600Z,17.10
2023-03-25T23:11:36.924Z,15.95
2023-03-25T23:14:13.355Z,17.65
2023-03-25T23:16:41.815Z,21.88
2023-03-25T23:19:10.278Z,26.65
2023-03-25T23:21:40.814Z,14.07
2023-03-25T23:24:08.576Z,15.75
2023-03-25T23:26:38.925Z,15.23
2023-03-25T23:29:10.426Z,14.80
2023-03-25T23:31:43.081Z,21.35
2023-03-25T23:34:14.544Z,13.27
2023-03-25T23:36:42.460Z,14.90
2023-03-25T23:39:13.618Z,14.23
2023-03-25T23:41:41.366Z,22.90
2023-03-25T23:44:08.613Z,20.80
2023-03-25T23:46:36.212Z,17.42
2023-03-25T23:49:05.799Z,24.42
2023-03-25T23:51:36.765Z,25.73
2023-03-25T23:54:06.007Z,20.13
2023-03-25T23:56:33.632Z,14.05
2023-03-25T23:59:03.676Z,20.48
